createdAt,value
2023-02-14T00:00:43.823Z,2.47
2023-02-14T00:01:43.875Z,2.69
2023-02-14T00:02:44.071Z,2.36
2023-02-14T00:03:43.997Z,2.34
2023-02-14T00:04:44.147Z,2.46
2023-02-14T00:05:43.120Z,2.33
2023-02-14T00:06:43.173Z,2.66
2023-02-14T00:07:44.214Z,2.64
2023-02-14T00:08:44.428Z,2.58
2023-02-14T00:09:43.348Z,2.50
2023-02-14T00:10:44.406Z,2.51
2023-02-14T00:11:44.475Z,2.54
2023-02-14T00:12:43.524Z,2.45
2023-02-14T00:13:44.583Z,2.87
2023-02-14T00:14:43.632Z,2.86
2023-02-14T00:15:43.751Z,3.15
2023-02-14T00:16:44.788Z,2.63
2023-02-14T00:17:43.808Z,2.53
2023-02-14T00:18:43.901Z,2.94
2023-02-14T00:19:44.944Z,2.88
2023-02-14T00:20:44.982Z,2.55
2023-02-14T00:21:45.086Z,2.68
2023-02-14T00:22:45.112Z,2.41
2023-02-14T00:23:44.168Z,2.74
2023-02-14T00:24:44.241Z,2.63
2023-02-14T00:25:44.297Z,2.68
2023-02-14T00:26:45.396Z,2.77
2023-02-14T00:27:45.442Z,2.43
2023-02-14T00:28:45.472Z,2.57
2023-02-14T00:29:45.532Z,2.65
2023-02-14T00:30:45.610Z,2.27
2023-02-14T00:31:45.705Z,2.74
2023-02-14T00:32:46.139Z,2.42
2023-02-14T00:33:45.889Z,2.62
2023-02-14T00:34:45.844Z,2.43
2023-02-14T00:35:45.908Z,3.04
2023-02-14T00:36:44.965Z,2.63
2023-02-14T00:37:45.030Z,2.57
2023-02-14T00:38:46.132Z,2.70
2023-02-14T00:39:46.144Z,2.55
2023-02-14T00:40:46.231Z,2.69
2023-02-14T00:41:46.263Z,2.75
2023-02-14T00:42:46.329Z,2.92
2023-02-14T00:43:46.451Z,2.67
2023-02-14T00:44:45.457Z,2.30
2023-02-14T00:45:46.574Z,2.52
2023-02-14T00:46:46.590Z,2.42
2023-02-14T00:47:46.662Z,2.73
2023-02-14T00:48:45.701Z,2.16
2023-02-14T00:49:46.807Z,2.60
2023-02-14T00:50:45.839Z,2.15
2023-02-14T00:51:46.901Z,2.53
2023-02-14T00:52:46.955Z,2.61
2023-02-14T00:53:47.029Z,2.86
2023-02-14T00:54:47.084Z,2.74
2023-02-14T00:55:46.145Z,2.47
2023-02-14T00:56:47.205Z,2.67
2023-02-14T00:57:47.272Z,2.45
2023-02-14T00:58:46.343Z,2.62
2023-02-14T00:59:46.415Z,2.57
2023-02-14T01:00:46.519Z,2.28
2023-02-14T01:01:46.520Z,2.44
2023-02-14T01:02:47.628Z,2.25
2023-02-14T01:03:47.636Z,2.59
2023-02-14T01:04:46.696Z,2.63
2023-02-14T01:05:47.793Z,2.69
2023-02-14T01:06:47.842Z,2.34
2023-02-14T01:07:46.892Z,2.61
2023-02-14T01:08:47.987Z,2.80
2023-02-14T01:09:48.011Z,2.42
2023-02-14T01:10:48.075Z,2.58
2023-02-14T01:11:47.115Z,2.80
2023-02-14T01:12:48.210Z,2.27
2023-02-14T01:13:48.305Z,2.56
2023-02-14T01:14:47.311Z,2.55
2023-02-14T01:15:48.378Z,2.66
2023-02-14T01:16:48.528Z,2.68
2023-02-14T01:17:47.501Z,2.42
2023-02-14T01:18:48.589Z,3.00
2023-02-14T01:19:48.643Z,2.74
2023-02-14T01:20:48.684Z,2.44
2023-02-14T01:21:48.798Z,2.57
2023-02-14T01:22:47.804Z,2.26
2023-02-14T01:23:48.849Z,2.60
2023-02-14T01:24:47.926Z,2.36
2023-02-14T01:25:48.949Z,3.17
2023-02-14T01:26:49.007Z,2.47
2023-02-14T01:27:48.062Z,2.66
2023-02-14T01:28:49.122Z,2.81
2023-02-14T01:29:48.175Z,2.74
2023-02-14T01:30:49.272Z,2.57
2023-02-14T01:31:49.448Z,2.77
2023-02-14T01:32:49.346Z,2.72
2023-02-14T01:33:49.416Z,2.47
2023-02-14T01:34:49.472Z,2.55
2023-02-14T01:35:48.527Z,2.51
2023-02-14T01:36:49.578Z,3.22
2023-02-14T01:37:49.648Z,2.74
2023-02-14T01:38:49.681Z,2.53
2023-02-14T01:39:48.752Z,2.69
2023-02-14T01:40:49.822Z,2.78
2023-02-14T01:41:49.857Z,2.19
2023-02-14T01:42:49.925Z,2.37
2023-02-14T01:43:48.968Z,2.83
2023-02-14T01:44:50.029Z,2.56
2023-02-14T01:45:50.137Z,2.30
2023-02-14T01:46:50.150Z,2.44
2023-02-14T01:47:50.211Z,2.16
2023-02-14T01:48:50.258Z,2.86
2023-02-14T01:49:49.322Z,2.48
2023-02-14T01:50:50.390Z,2.69
2023-02-14T01:51:50.432Z,2.59
2023-02-14T01:52:50.486Z,2.49
2023-02-14T01:53:50.557Z,2.96
2023-02-14T01:54:50.580Z,3.23
2023-02-14T01:55:50.635Z,2.45
2023-02-14T01:56:50.677Z,3.00
2023-02-14T01:57:50.752Z,2.67
2023-02-14T01:58:49.776Z,2.96
2023-02-14T01:59:50.831Z,2.61
2023-02-14T02:00:49.945Z,2.48
2023-02-14T02:01:51.000Z,2.63
2023-02-14T02:02:49.973Z,2.80
2023-02-14T02:03:51.025Z,2.73
2023-02-14T02:04:51.056Z,2.29
2023-02-14T02:05:51.102Z,2.79
2023-02-14T02:06:51.159Z,3.09
2023-02-14T02:07:51.214Z,2.47
2023-02-14T02:08:50.280Z,2.45
2023-02-14T02:09:51.351Z,2.81
2023-02-14T02:10:51.394Z,1.96
2023-02-14T02:11:51.408Z,2.60
2023-02-14T02:12:51.456Z,2.46
2023-02-14T02:13:51.503Z,2.28
2023-02-14T02:14:50.544Z,2.37
2023-02-14T02:15:51.683Z,2.29
2023-02-14T02:16:51.776Z,2.55
2023-02-14T02:17:51.699Z,2.72
2023-02-14T02:18:50.746Z,2.37
2023-02-14T02:19:51.781Z,2.22
2023-02-14T02:20:51.845Z,2.68
2023-02-14T02:21:50.914Z,2.77
2023-02-14T02:22:51.948Z,2.59
2023-02-14T02:23:51.995Z,2.51
2023-02-14T02:24:52.045Z,2.95
2023-02-14T02:25:52.125Z,2.46
2023-02-14T02:26:51.128Z,2.70
2023-02-14T02:27:52.177Z,2.65
2023-02-14T02:28:52.232Z,2.72
2023-02-14T02:29:52.376Z,2.73
2023-02-14T02:30:51.421Z,2.23
2023-02-14T02:31:51.540Z,2.62
2023-02-14T02:32:51.395Z,2.95
2023-02-14T02:33:52.412Z,2.56
2023-02-14T02:34:51.449Z,2.23
2023-02-14T02:35:52.481Z,2.93
2023-02-14T02:36:52.524Z,3.13
2023-02-14T02:37:52.591Z,2.72
2023-02-14T02:38:52.592Z,2.64
2023-02-14T02:39:52.627Z,2.94
2023-02-14T02:40:51.637Z,2.86
2023-02-14T02:41:52.707Z,2.66
2023-02-14T02:42:52.674Z,2.48
2023-02-14T02:43:52.715Z,3.18
2023-02-14T02:44:52.753Z,2.65
2023-02-14T02:45:52.807Z,2.25
2023-02-14T02:46:52.807Z,2.67
2023-02-14T02:47:51.825Z,2.54
2023-02-14T02:48:52.848Z,2.88
2023-02-14T02:49:51.876Z,2.27
2023-02-14T02:50:52.917Z,2.55
2023-02-14T02:51:51.960Z,2.32
2023-02-14T02:52:52.993Z,2.52
2023-02-14T02:53:52.001Z,2.40
2023-02-14T02:54:53.038Z,2.46
2023-02-14T02:55:53.088Z,2.52
2023-02-14T02:56:52.155Z,2.43
2023-02-14T02:57:53.198Z,2.46
2023-02-14T02:58:53.203Z,2.64
2023-02-14T02:59:53.239Z,2.66
2023-02-14T03:00:52.297Z,2.64
2023-02-14T03:01:52.469Z,2.68
2023-02-14T03:02:52.358Z,2.51
2023-02-14T03:03:53.481Z,2.77
2023-02-14T03:04:52.461Z,3.07
2023-02-14T03:05:53.469Z,2.39
2023-02-14T03:06:52.506Z,3.18
2023-02-14T03:07:52.523Z,2.20
2023-02-14T03:08:53.559Z,2.70
2023-02-14T03:09:53.608Z,2.42
2023-02-14T03:10:53.600Z,2.64
2023-02-14T03:11:52.613Z,2.57
2023-02-14T03:12:52.642Z,2.76
2023-02-14T03:13:53.707Z,2.25
2023-02-14T03:14:53.661Z,3.09
2023-02-14T03:15:53.795Z,2.93
2023-02-14T03:16:52.694Z,2.68
2023-02-14T03:17:54.414Z,2.19
2023-02-14T03:18:53.774Z,2.78
2023-02-14T03:19:53.795Z,2.97
2023-02-14T03:20:52.794Z,2.62
2023-02-14T03:21:52.838Z,2.38
2023-02-14T03:22:53.853Z,3.10
2023-02-14T03:23:53.897Z,2.66
2023-02-14T03:24:52.881Z,3.08
2023-02-14T03:25:53.902Z,2.32
2023-02-14T03:26:53.932Z,2.46
2023-02-14T03:27:53.963Z,2.94
2023-02-14T03:28:54.011Z,2.53
2023-02-14T03:29:54.074Z,2.58
2023-02-14T03:30:53.129Z,3.18
2023-02-14T03:31:54.129Z,2.48
2023-02-14T03:32:54.064Z,2.80
2023-02-14T03:33:54.120Z,2.29
2023-02-14T03:34:53.128Z,2.66
2023-02-14T03:35:53.139Z,2.75
2023-02-14T03:36:54.170Z,2.54
2023-02-14T03:37:54.176Z,2.50
2023-02-14T03:38:54.253Z,2.64
2023-02-14T03:39:54.209Z,2.75
2023-02-14T03:40:53.220Z,2.85
2023-02-14T03:41:54.213Z,2.34
2023-02-14T03:42:54.274Z,3.16
2023-02-14T03:43:54.269Z,2.29
2023-02-14T03:44:54.325Z,2.89
2023-02-14T03:45:54.320Z,2.40
2023-02-14T03:46:53.297Z,2.87
2023-02-14T03:47:54.287Z,2.74
2023-02-14T03:48:54.311Z,2.67
2023-02-14T03:49:54.301Z,2.40
2023-02-14T03:50:54.310Z,2.19
2023-02-14T03:51:53.344Z,2.45
2023-02-14T03:52:54.336Z,2.69
2023-02-14T03:53:54.397Z,2.29
2023-02-14T03:54:54.391Z,2.40
2023-02-14T03:55:53.420Z,2.81
2023-02-14T03:56:54.429Z,2.50
2023-02-14T03:57:53.461Z,2.67
2023-02-14T03:58:53.440Z,2.54
2023-02-14T03:59:54.460Z,2.98
2023-02-14T04:00:53.469Z,2.44
2023-02-14T04:01:53.623Z,2.56
2023-02-14T04:02:53.501Z,2.75
2023-02-14T04:03:54.573Z,2.70
2023-02-14T04:04:53.532Z,2.55
2023-02-14T04:05:54.554Z,2.42
2023-02-14T04:06:54.564Z,2.42
2023-02-14T04:07:54.552Z,2.48
2023-02-14T04:08:54.557Z,2.66
2023-02-14T04:09:53.578Z,2.62
2023-02-14T04:10:54.598Z,2.31
2023-02-14T04:11:53.592Z,2.55
2023-02-14T04:12:54.590Z,2.78
2023-02-14T04:13:53.586Z,2.51
2023-02-14T04:14:54.610Z,2.25
2023-02-14T04:15:54.661Z,2.40
2023-02-14T04:16:54.636Z,2.65
2023-02-14T04:17:53.761Z,2.75
2023-02-14T04:18:53.650Z,2.41
2023-02-14T04:19:54.654Z,2.76
2023-02-14T04:20:54.663Z,2.76
2023-02-14T04:21:53.652Z,3.11
2023-02-14T04:22:54.679Z,2.63
2023-02-14T04:23:54.661Z,2.70
2023-02-14T04:24:54.697Z,2.60
2023-02-14T04:25:54.706Z,2.70
2023-02-14T04:26:54.715Z,2.65
2023-02-14T04:27:53.712Z,2.02
2023-02-14T04:28:54.722Z,2.53
2023-02-14T04:29:54.834Z,2.87
2023-02-14T04:30:53.758Z,2.10
2023-02-14T04:31:54.895Z,2.26
2023-02-14T04:32:53.752Z,2.31
2023-02-14T04:33:54.755Z,2.39
2023-02-14T04:34:53.726Z,2.40
2023-02-14T04:35:54.711Z,3.20
2023-02-14T04:36:53.715Z,2.82
2023-02-14T04:37:54.728Z,2.42
2023-02-14T04:38:53.709Z,2.29
2023-02-14T04:39:54.722Z,2.76
2023-02-14T04:40:53.701Z,2.91
2023-02-14T04:41:53.698Z,2.85
2023-02-14T04:42:54.715Z,2.45
2023-02-14T04:43:53.702Z,2.42
2023-02-14T04:44:53.704Z,2.30
2023-02-14T04:45:54.694Z,2.53
2023-02-14T04:46:54.836Z,2.22
2023-02-14T04:47:53.705Z,2.28
2023-02-14T04:48:54.682Z,2.54
2023-02-14T04:49:53.720Z,2.75
2023-02-14T04:50:54.690Z,2.44
2023-02-14T04:51:54.697Z,2.46
2023-02-14T04:52:53.673Z,2.62
2023-02-14T04:53:53.678Z,2.57
2023-02-14T04:54:53.683Z,2.81
2023-02-14T04:55:54.685Z,2.50
2023-02-14T04:56:54.683Z,2.79
2023-02-14T04:57:54.671Z,2.48
2023-02-14T04:58:54.658Z,2.23
2023-02-14T04:59:54.671Z,2.43
2023-02-14T05:00:53.810Z,2.97
2023-02-14T05:01:53.762Z,2.24
2023-02-14T05:02:54.695Z,2.58
2023-02-14T05:03:54.669Z,2.33
2023-02-14T05:04:54.671Z,2.87
2023-02-14T05:05:54.697Z,2.27
2023-02-14T05:06:54.676Z,2.44
2023-02-14T05:07:54.670Z,2.15
2023-02-14T05:08:54.647Z,2.16
2023-02-14T05:09:54.663Z,2.34
2023-02-14T05:10:54.664Z,2.52
2023-02-14T05:11:54.639Z,2.23
2023-02-14T05:12:54.645Z,2.24
2023-02-14T05:13:53.659Z,2.27
2023-02-14T05:14:54.668Z,2.40
2023-02-14T05:15:53.702Z,2.96
2023-02-14T05:16:54.650Z,2.37
2023-02-14T05:17:54.675Z,2.57
2023-02-14T05:18:54.669Z,2.73
2023-02-14T05:19:54.679Z,2.39
2023-02-14T05:20:54.675Z,2.47
2023-02-14T05:21:54.685Z,2.29
2023-02-14T05:22:54.673Z,2.66
2023-02-14T05:23:54.652Z,2.50
2023-02-14T05:24:54.801Z,2.85
2023-02-14T05:25:53.669Z,2.51
2023-02-14T05:26:54.696Z,2.41
2023-02-14T05:27:53.657Z,2.56
2023-02-14T05:28:54.667Z,2.78
2023-02-14T05:29:53.728Z,2.19
2023-02-14T05:30:54.701Z,2.40
2023-02-14T05:31:54.723Z,2.38
2023-02-14T05:32:54.662Z,2.32
2023-02-14T05:33:53.672Z,2.25
2023-02-14T05:34:53.674Z,2.09
2023-02-14T05:35:53.674Z,2.68
2023-02-14T05:36:54.665Z,2.74
2023-02-14T05:37:53.705Z,2.46
2023-02-14T05:38:54.679Z,2.45
2023-02-14T05:39:54.672Z,2.51
2023-02-14T05:40:53.668Z,2.81
2023-02-14T05:41:54.680Z,2.39
2023-02-14T05:42:54.684Z,2.41
2023-02-14T05:43:54.699Z,2.61
2023-02-14T05:44:53.684Z,2.41
2023-02-14T05:45:54.803Z,2.18
2023-02-14T05:46:54.678Z,2.41
2023-02-14T05:47:53.699Z,2.77
2023-02-14T05:48:54.664Z,2.62
2023-02-14T05:49:54.669Z,2.47
2023-02-14T05:50:54.672Z,2.91
2023-02-14T05:51:54.676Z,2.22
2023-02-14T05:52:54.685Z,2.54
2023-02-14T05:53:54.715Z,2.72
2023-02-14T05:54:53.698Z,2.42
2023-02-14T05:55:54.687Z,2.33
2023-02-14T05:56:54.686Z,2.20
2023-02-14T05:57:54.687Z,2.94
2023-02-14T05:58:53.684Z,2.21
2023-02-14T05:59:54.692Z,2.46
2023-02-14T06:00:54.670Z,2.46
2023-02-14T06:01:54.716Z,2.47
2023-02-14T06:02:54.661Z,2.46
2023-02-14T06:03:54.668Z,2.43
2023-02-14T06:04:54.683Z,2.15
2023-02-14T06:05:54.656Z,2.33
2023-02-14T06:06:54.673Z,2.26
2023-02-14T06:07:54.675Z,2.68
2023-02-14T06:08:54.684Z,2.01
2023-02-14T06:09:53.702Z,2.04
2023-02-14T06:10:54.697Z,2.01
2023-02-14T06:11:55.357Z,2.36
2023-02-14T06:12:54.678Z,2.40
2023-02-14T06:13:54.692Z,2.54
2023-02-14T06:14:54.691Z,2.47
2023-02-14T06:15:53.697Z,2.22
2023-02-14T06:16:53.744Z,2.40
2023-02-14T06:17:54.702Z,2.27
2023-02-14T06:18:53.696Z,2.46
2023-02-14T06:19:53.697Z,2.52
2023-02-14T06:20:54.696Z,2.32
2023-02-14T06:21:54.712Z,2.34
2023-02-14T06:22:54.703Z,2.11
2023-02-14T06:23:53.704Z,2.24
2023-02-14T06:24:54.714Z,2.33
2023-02-14T06:25:54.770Z,2.53
2023-02-14T06:26:54.729Z,2.22
2023-02-14T06:27:53.733Z,2.85
2023-02-14T06:28:54.735Z,2.13
2023-02-14T06:29:54.752Z,2.62
2023-02-14T06:30:54.878Z,2.45
2023-02-14T06:31:53.938Z,2.11
2023-02-14T06:32:53.757Z,2.36
2023-02-14T06:33:54.761Z,2.55
2023-02-14T06:34:54.760Z,3.06
2023-02-14T06:35:54.798Z,2.03
2023-02-14T06:36:54.767Z,2.31
2023-02-14T06:37:54.774Z,2.43
2023-02-14T06:38:54.788Z,2.14
2023-02-14T06:39:53.795Z,2.26
2023-02-14T06:40:54.786Z,2.55
2023-02-14T06:41:54.824Z,2.46
2023-02-14T06:42:54.786Z,2.80
2023-02-14T06:43:53.782Z,2.61
2023-02-14T06:44:54.805Z,2.60
2023-02-14T06:45:54.887Z,2.70
2023-02-14T06:46:54.808Z,2.30
2023-02-14T06:47:54.819Z,2.10
2023-02-14T06:48:54.816Z,2.31
2023-02-14T06:49:54.831Z,2.14
2023-02-14T06:50:53.860Z,2.41
2023-02-14T06:51:53.839Z,2.32
2023-02-14T06:52:54.854Z,2.19
2023-02-14T06:53:54.850Z,2.34
2023-02-14T06:54:53.868Z,2.36
2023-02-14T06:55:54.895Z,2.25
2023-02-14T06:56:54.895Z,2.51
2023-02-14T06:57:53.927Z,2.30
2023-02-14T06:58:54.913Z,2.09
2023-02-14T06:59:54.918Z,2.43
2023-02-14T07:00:54.932Z,2.44
2023-02-14T07:01:53.984Z,2.24
2023-02-14T07:02:55.058Z,1.73
2023-02-14T07:03:54.935Z,2.27
2023-02-14T07:04:53.949Z,2.50
2023-02-14T07:05:54.957Z,2.72
2023-02-14T07:06:54.951Z,2.40
2023-02-14T07:07:54.962Z,2.39
2023-02-14T07:08:54.966Z,2.33
2023-02-14T07:09:54.973Z,2.36
2023-02-14T07:10:53.983Z,2.27
2023-02-14T07:11:54.994Z,2.10
2023-02-14T07:12:55.008Z,2.16
2023-02-14T07:13:54.042Z,2.04
2023-02-14T07:14:55.041Z,2.16
2023-02-14T07:15:55.076Z,2.29
2023-02-14T07:16:55.050Z,2.20
2023-02-14T07:17:55.062Z,2.13
2023-02-14T07:18:55.099Z,1.96
2023-02-14T07:19:55.125Z,2.53
2023-02-14T07:20:55.136Z,2.42
2023-02-14T07:21:55.147Z,2.15
2023-02-14T07:22:54.143Z,2.47
2023-02-14T07:23:55.169Z,2.28
2023-02-14T07:24:55.174Z,2.19
2023-02-14T07:25:55.202Z,2.33
2023-02-14T07:26:55.218Z,2.45
2023-02-14T07:27:55.224Z,2.28
2023-02-14T07:28:55.240Z,2.07
2023-02-14T07:29:55.310Z,2.34
2023-02-14T07:30:54.400Z,2.70
2023-02-14T07:31:55.564Z,2.33
2023-02-14T07:32:54.275Z,2.18
2023-02-14T07:33:55.330Z,2.47
2023-02-14T07:34:55.322Z,2.61
2023-02-14T07:35:55.361Z,2.31
2023-02-14T07:36:55.357Z,2.51
2023-02-14T07:37:55.377Z,2.60
2023-02-14T07:38:54.381Z,2.49
2023-02-14T07:39:55.397Z,2.13
2023-02-14T07:40:54.407Z,2.71
2023-02-14T07:41:54.415Z,2.89
2023-02-14T07:42:55.408Z,2.33
2023-02-14T07:43:54.423Z,2.13
2023-02-14T07:44:55.429Z,2.15
2023-02-14T07:45:55.478Z,2.45
2023-02-14T07:46:55.459Z,2.01
2023-02-14T07:47:54.462Z,2.83
2023-02-14T07:48:54.470Z,1.99
2023-02-14T07:49:55.455Z,2.25
2023-02-14T07:50:54.478Z,2.54
2023-02-14T07:51:55.492Z,2.21
2023-02-14T07:52:55.500Z,2.16
2023-02-14T07:53:54.508Z,2.50
2023-02-14T07:54:55.482Z,2.40
2023-02-14T07:55:55.504Z,2.05
2023-02-14T07:56:55.496Z,2.36
2023-02-14T07:57:55.532Z,2.18
2023-02-14T07:58:54.526Z,1.97
2023-02-14T07:59:55.511Z,2.36
2023-02-14T08:00:54.509Z,2.25
2023-02-14T08:01:55.646Z,2.48
2023-02-14T08:02:54.511Z,2.76
2023-02-14T08:03:55.513Z,2.07
2023-02-14T08:04:54.570Z,2.50
2023-02-14T08:05:55.523Z,2.29
2023-02-14T08:06:55.526Z,2.30
2023-02-14T08:07:55.513Z,2.60
2023-02-14T08:08:55.514Z,2.76
2023-02-14T08:09:54.507Z,2.55
2023-02-14T08:10:54.512Z,2.38
2023-02-14T08:11:55.493Z,2.11
2023-02-14T08:12:55.500Z,2.01
2023-02-14T08:13:55.479Z,2.11
2023-02-14T08:14:55.487Z,1.86
2023-02-14T08:15:55.629Z,2.50
2023-02-14T08:16:55.521Z,2.34
2023-02-14T08:17:55.543Z,2.48
2023-02-14T08:18:55.531Z,2.64
2023-02-14T08:19:55.520Z,2.40
2023-02-14T08:20:55.552Z,2.20
2023-02-14T08:21:55.536Z,2.10
2023-02-14T08:22:54.540Z,2.08
2023-02-14T08:23:55.521Z,2.38
2023-02-14T08:24:55.536Z,1.95
2023-02-14T08:25:54.536Z,2.56
2023-02-14T08:26:55.563Z,2.09
2023-02-14T08:27:55.552Z,1.80
2023-02-14T08:28:55.592Z,2.27
2023-02-14T08:29:55.679Z,2.22
2023-02-14T08:30:55.776Z,2.16
2023-02-14T08:31:55.830Z,2.27
2023-02-14T08:32:55.851Z,2.39
2023-02-14T08:33:55.983Z,2.28
2023-02-14T08:34:54.872Z,2.28
2023-02-14T08:35:55.915Z,2.07
2023-02-14T08:36:55.965Z,2.21
2023-02-14T08:37:54.987Z,2.33
2023-02-14T08:38:56.022Z,1.88
2023-02-14T08:39:56.077Z,1.97
2023-02-14T08:40:56.112Z,2.15
2023-02-14T08:41:55.141Z,2.16
2023-02-14T08:42:56.176Z,2.10
2023-02-14T08:43:56.233Z,2.05
2023-02-14T08:44:56.284Z,1.88
2023-02-14T08:45:56.313Z,2.14
2023-02-14T08:46:56.460Z,2.17
2023-02-14T08:47:56.453Z,2.10
2023-02-14T08:48:56.530Z,2.04
2023-02-14T08:49:56.568Z,2.08
2023-02-14T08:50:56.926Z,2.01
2023-02-14T08:51:56.693Z,2.21
2023-02-14T08:52:56.767Z,2.18
2023-02-14T08:53:56.793Z,2.07
2023-02-14T08:54:55.869Z,2.56
2023-02-14T08:55:57.022Z,2.12
2023-02-14T08:56:57.013Z,2.07
2023-02-14T08:57:57.060Z,2.21
2023-02-14T08:58:57.142Z,2.27
2023-02-14T08:59:57.207Z,2.13
2023-02-14T09:00:56.344Z,2.20
2023-02-14T09:01:57.303Z,2.33
2023-02-14T09:02:57.351Z,1.81
2023-02-14T09:03:56.458Z,2.00
2023-02-14T09:04:56.447Z,1.95
2023-02-14T09:05:57.535Z,2.20
2023-02-14T09:06:57.569Z,2.03
2023-02-14T09:07:56.693Z,2.45
2023-02-14T09:08:57.670Z,2.44
2023-02-14T09:09:57.761Z,2.46
2023-02-14T09:10:58.230Z,1.93
2023-02-14T09:11:57.832Z,2.10
2023-02-14T09:12:57.882Z,2.12
2023-02-14T09:13:57.923Z,1.99
2023-02-14T09:14:58.036Z,2.05
2023-02-14T09:15:57.060Z,2.00
2023-02-14T09:16:58.185Z,2.28
2023-02-14T09:17:58.139Z,2.28
2023-02-14T09:18:58.193Z,2.01
2023-02-14T09:19:57.231Z,2.29
2023-02-14T09:20:58.626Z,2.19
2023-02-14T09:21:58.340Z,2.09
2023-02-14T09:22:58.348Z,1.81
2023-02-14T09:23:58.378Z,2.32
2023-02-14T09:24:57.427Z,2.15
2023-02-14T09:25:58.488Z,2.37
2023-02-14T09:26:57.533Z,2.19
2023-02-14T09:27:58.585Z,1.88
2023-02-14T09:28:57.631Z,2.07
2023-02-14T09:29:58.698Z,1.92
2023-02-14T09:30:59.086Z,2.03
2023-02-14T09:31:58.882Z,2.27
2023-02-14T09:32:58.788Z,2.07
2023-02-14T09:33:57.820Z,1.64
2023-02-14T09:34:57.870Z,2.20
2023-02-14T09:35:58.927Z,1.99
2023-02-14T09:36:58.978Z,1.94
2023-02-14T09:37:58.055Z,2.09
2023-02-14T09:38:59.062Z,2.06
2023-02-14T09:39:59.124Z,1.92
2023-02-14T09:40:59.572Z,2.32
2023-02-14T09:41:59.169Z,1.86
2023-02-14T09:43:01.753Z,1.94
2023-02-14T09:43:58.209Z,2.33
2023-02-14T09:44:59.191Z,2.12
2023-02-14T09:45:59.294Z,2.50
2023-02-14T09:46:58.191Z,2.00
2023-02-14T09:47:59.176Z,2.35
2023-02-14T09:48:59.249Z,2.00
2023-02-14T09:49:58.218Z,2.05
2023-02-14T09:50:59.516Z,2.01
2023-02-14T09:51:58.157Z,1.99
2023-02-14T09:52:58.154Z,2.02
2023-02-14T09:53:59.178Z,2.06
2023-02-14T09:54:59.134Z,2.05
2023-02-14T09:55:59.139Z,2.65
2023-02-14T09:56:59.131Z,2.07
2023-02-14T09:57:58.134Z,1.46
2023-02-14T09:58:59.136Z,2.07
2023-02-14T09:59:59.092Z,2.03
2023-02-14T10:00:58.427Z,1.93
2023-02-14T10:01:58.270Z,2.09
2023-02-14T10:02:59.121Z,2.40
2023-02-14T10:03:58.086Z,2.13
2023-02-14T10:04:59.059Z,1.75
2023-02-14T10:05:59.053Z,1.80
2023-02-14T10:06:59.078Z,2.07
2023-02-14T10:07:58.068Z,1.90
2023-02-14T10:08:59.047Z,1.81
2023-02-14T10:09:59.068Z,2.25
2023-02-14T10:10:59.332Z,1.75
2023-02-14T10:11:59.034Z,2.16
2023-02-14T10:12:59.010Z,1.80
2023-02-14T10:13:58.020Z,1.75
2023-02-14T10:14:58.004Z,1.82
2023-02-14T10:15:59.004Z,2.02
2023-02-14T10:16:59.111Z,1.53
2023-02-14T10:17:58.025Z,1.87
2023-02-14T10:18:59.060Z,1.76
2023-02-14T10:19:58.070Z,1.78
2023-02-14T10:20:59.467Z,1.94
2023-02-14T10:21:59.105Z,2.06
2023-02-14T10:22:59.123Z,2.08
2023-02-14T10:23:59.153Z,1.77
2023-02-14T10:24:58.160Z,1.77
2023-02-14T10:25:59.335Z,2.07
2023-02-14T10:26:59.212Z,1.82
2023-02-14T10:27:59.243Z,1.76
2023-02-14T10:28:59.275Z,2.03
2023-02-14T10:29:59.379Z,1.49
2023-02-14T10:30:58.552Z,1.88
2023-02-14T10:31:59.381Z,1.86
2023-02-14T10:32:59.342Z,1.42
2023-02-14T10:33:59.385Z,2.33
2023-02-14T10:34:59.365Z,2.36
2023-02-14T10:35:59.381Z,1.87
2023-02-14T10:36:59.399Z,2.08
2023-02-14T10:37:59.424Z,1.75
2023-02-14T10:38:58.438Z,1.94
2023-02-14T10:39:58.440Z,1.87
2023-02-14T10:40:59.821Z,1.70
2023-02-14T10:41:58.485Z,1.63
2023-02-14T10:42:59.489Z,1.86
2023-02-14T10:43:59.546Z,1.68
2023-02-14T10:44:59.526Z,2.13
2023-02-14T10:45:59.560Z,1.90
2023-02-14T10:46:58.551Z,1.78
2023-02-14T10:47:59.578Z,1.94
2023-02-14T10:48:59.587Z,2.26
2023-02-14T10:49:59.600Z,1.64
2023-02-14T10:51:00.001Z,1.63
2023-02-14T10:51:59.625Z,1.81
2023-02-14T10:52:59.625Z,1.86
2023-02-14T10:53:59.661Z,1.88
2023-02-14T10:54:58.664Z,1.97
2023-02-14T10:55:58.677Z,1.84
2023-02-14T10:56:59.674Z,1.81
2023-02-14T10:57:59.719Z,1.63
2023-02-14T10:58:59.731Z,1.59
2023-02-14T10:59:58.747Z,2.05
2023-02-14T11:01:00.038Z,2.15
2023-02-14T11:01:59.756Z,1.97
2023-02-14T11:02:59.776Z,2.12
2023-02-14T11:03:59.862Z,1.83
2023-02-14T11:04:59.784Z,2.19
2023-02-14T11:05:58.822Z,1.70
2023-02-14T11:06:59.806Z,1.94
2023-02-14T11:07:59.828Z,1.88
2023-02-14T11:08:58.846Z,1.61
2023-02-14T11:09:59.848Z,2.06
2023-02-14T11:11:00.239Z,2.08
2023-02-14T11:11:59.873Z,1.97
2023-02-14T11:12:59.969Z,1.59
2023-02-14T11:13:59.895Z,1.92
2023-02-14T11:14:59.910Z,2.04
2023-02-14T11:16:00.242Z,1.63
2023-02-14T11:16:58.981Z,1.77
2023-02-14T11:17:58.944Z,1.70
2023-02-14T11:18:59.952Z,1.85
2023-02-14T11:19:59.958Z,1.91
2023-02-14T11:20:59.961Z,1.84
2023-02-14T11:21:59.969Z,1.46
2023-02-14T11:22:58.963Z,2.10
2023-02-14T11:23:59.997Z,1.65
2023-02-14T11:24:59.989Z,1.85
2023-02-14T11:26:00.390Z,1.85
2023-02-14T11:26:59.996Z,1.73
2023-02-14T11:28:00.002Z,1.54
2023-02-14T11:29:00.088Z,1.58
2023-02-14T11:29:59.045Z,2.10
2023-02-14T11:31:00.552Z,1.68
2023-02-14T11:31:59.661Z,1.79
2023-02-14T11:33:00.030Z,1.63
2023-02-14T11:34:00.022Z,1.51
2023-02-14T11:34:59.040Z,1.92
2023-02-14T11:35:59.041Z,1.86
2023-02-14T11:37:00.037Z,1.79
2023-02-14T11:37:59.050Z,1.63
2023-02-14T11:39:00.042Z,1.88
2023-02-14T11:40:00.072Z,1.59
2023-02-14T11:41:00.431Z,1.80
2023-02-14T11:41:59.067Z,1.50
2023-02-14T11:43:13.363Z,1.74
2023-02-14T11:44:00.048Z,2.00
2023-02-14T11:44:59.055Z,2.24
2023-02-14T11:45:59.051Z,1.68
2023-02-14T11:47:00.042Z,1.90
2023-02-14T11:48:00.092Z,1.61
2023-02-14T11:49:00.036Z,1.92
2023-02-14T11:50:00.033Z,1.99
2023-02-14T11:51:00.270Z,1.77
2023-02-14T11:52:00.001Z,1.64
2023-02-14T11:52:58.983Z,2.03
2023-02-14T11:54:00.011Z,2.07
2023-02-14T11:54:58.990Z,1.74
2023-02-14T11:55:59.985Z,1.87
2023-02-14T11:56:59.972Z,2.43
2023-02-14T11:57:59.982Z,1.61
2023-02-14T11:58:59.981Z,1.70
2023-02-14T11:59:58.953Z,1.74
2023-02-14T12:01:00.247Z,2.11
2023-02-14T12:01:59.934Z,1.68
2023-02-14T12:02:59.979Z,1.95
2023-02-14T12:04:00.061Z,1.79
2023-02-14T12:04:59.933Z,1.46
2023-02-14T12:05:58.911Z,1.39
2023-02-14T12:06:59.919Z,1.54
2023-02-14T12:07:59.906Z,1.47
2023-02-14T12:08:58.895Z,1.84
2023-02-14T12:10:00.230Z,1.67
2023-02-14T12:10:59.202Z,1.93
2023-02-14T12:11:59.904Z,1.54
2023-02-14T12:12:59.871Z,2.07
2023-02-14T12:13:59.864Z,1.84
2023-02-14T12:14:58.878Z,1.58
2023-02-14T12:15:59.917Z,1.61
2023-02-14T12:16:59.859Z,1.67
2023-02-14T12:17:58.864Z,1.75
2023-02-14T12:18:59.846Z,1.87
2023-02-14T12:19:58.872Z,1.91
2023-02-14T12:21:00.075Z,1.55
2023-02-14T12:21:59.821Z,1.76
2023-02-14T12:22:59.805Z,1.62
2023-02-14T12:23:59.823Z,2.10
2023-02-14T12:25:00.136Z,1.96
2023-02-14T12:25:59.779Z,2.15
2023-02-14T12:26:58.770Z,1.79
2023-02-14T12:27:59.791Z,1.91
2023-02-14T12:28:59.757Z,1.56
2023-02-14T12:29:59.825Z,1.70
2023-02-14T12:30:59.291Z,1.57
2023-02-14T12:31:59.868Z,1.81
2023-02-14T12:32:58.760Z,1.99
2023-02-14T12:33:58.746Z,1.73
2023-02-14T12:34:59.739Z,2.01
2023-02-14T12:35:58.768Z,1.69
2023-02-14T12:36:58.730Z,1.53
2023-02-14T12:38:04.393Z,1.30
2023-02-14T12:38:59.701Z,1.52
2023-02-14T12:39:59.697Z,1.34
2023-02-14T12:40:59.936Z,1.85
2023-02-14T12:41:59.668Z,1.55
2023-02-14T12:42:59.690Z,1.83
2023-02-14T12:43:59.663Z,1.41
2023-02-14T12:44:59.652Z,1.64
2023-02-14T12:46:00.067Z,1.34
2023-02-14T12:46:59.665Z,1.80
2023-02-14T12:47:59.632Z,1.77
2023-02-14T12:48:59.628Z,1.70
2023-02-14T12:49:58.620Z,1.74
2023-02-14T12:50:58.888Z,1.67
2023-02-14T12:51:59.631Z,1.73
2023-02-14T12:52:58.590Z,1.48
2023-02-14T12:53:58.579Z,1.69
2023-02-14T12:54:59.586Z,2.00
2023-02-14T12:55:59.580Z,1.31
2023-02-14T12:56:59.559Z,1.66
2023-02-14T12:57:59.564Z,1.59
2023-02-14T12:58:58.555Z,1.79
2023-02-14T12:59:58.568Z,1.67
2023-02-14T13:01:00.173Z,1.41
2023-02-14T13:01:59.607Z,1.41
2023-02-14T13:02:58.617Z,2.06
2023-02-14T13:03:59.514Z,1.84
2023-02-14T13:04:59.516Z,1.82
2023-02-14T13:05:58.517Z,1.80
2023-02-14T13:06:58.515Z,1.41
2023-02-14T13:07:59.517Z,1.44
2023-02-14T13:08:59.489Z,1.58
2023-02-14T13:09:59.536Z,1.46
2023-02-14T13:10:59.895Z,1.72
2023-02-14T13:11:58.476Z,1.67
2023-02-14T13:12:59.464Z,1.91
2023-02-14T13:13:59.441Z,1.44
2023-02-14T13:14:59.437Z,1.87
2023-02-14T13:15:59.499Z,1.60
2023-02-14T13:16:58.441Z,1.49
2023-02-14T13:17:58.430Z,1.54
2023-02-14T13:18:58.409Z,1.41